createdAt,value
2023-03-27T00:01:30.880Z,99269.88
2023-03-27T00:04:00.608Z,99285.00
2023-03-27T00:06:29.113Z,99285.88
2023-03-27T00:08:58.509Z,99277.03
2023-03-27T00:11:27.059Z,99269.19
2023-03-27T00:13:55.796Z,99267.38
2023-03-27T00:16:27.106Z,99283.38
2023-03-27T00:18:56.196Z,99287.84
2023-03-27T00:21:26.125Z,99290.69
2023-03-27T00:23:56.903Z,99288.19
2023-03-27T00:26:25.552Z,99292.50
2023-03-27T00:28:54.986Z,99293.53
2023-03-27T00:31:23.801Z,99282.06
2023-03-27T00:33:52.958Z,99300.69
2023-03-27T00:36:21.622Z,99305.16
2023-03-27T00:38:53.410Z,99299.38
2023-03-27T00:41:22.572Z,99293.03
2023-03-27T00:43:54.257Z,99296.72
2023-03-27T00:46:43.484Z,99291.53
2023-03-27T00:49:13.590Z,99306.50
2023-03-27T00:51:43.084Z,99312.69
2023-03-27T00:54:13.424Z,99312.34
2023-03-27T00:56:42.261Z,99323.66
2023-03-27T00:59:14.472Z,99303.34
2023-03-27T01:01:43.015Z,99303.19
2023-03-27T01:04:12.039Z,99291.72
2023-03-27T01:06:42.493Z,99290.03
2023-03-27T01:09:11.274Z,99288.38
2023-03-27T01:12:54.309Z,99315.03
2023-03-27T01:15:41.355Z,99308.00
2023-03-27T01:18:49.887Z,99315.03
2023-03-27T01:22:00.045Z,99318.66
2023-03-27T01:25:32.057Z,99316.00
2023-03-27T01:28:12.736Z,99312.69
2023-03-27T01:30:51.900Z,99308.38
2023-03-27T01:33:47.783Z,99300.38
2023-03-27T01:37:06.682Z,99322.00
2023-03-27T01:40:02.216Z,99320.00
2023-03-27T01:42:48.140Z,99329.00
2023-03-27T01:45:46.646Z,99337.81
2023-03-27T01:48:42.492Z,99349.50
2023-03-27T01:51:18.367Z,99350.47
2023-03-27T01:53:58.664Z,99348.81
2023-03-27T01:56:37.672Z,99339.00
2023-03-27T01:59:16.495Z,99344.34
2023-03-27T02:02:00.958Z,99349.66
2023-03-27T02:04:38.945Z,99339.31
2023-03-27T02:07:12.683Z,99349.16
2023-03-27T02:09:51.588Z,99340.34
2023-03-27T02:12:49.622Z,99343.16
2023-03-27T02:15:23.647Z,99336.81
2023-03-27T02:18:05.986Z,99345.00
2023-03-27T02:20:35.460Z,99355.66
2023-03-27T02:23:06.827Z,99360.13
2023-03-27T02:25:40.121Z,99366.31
2023-03-27T02:28:31.618Z,99368.31
2023-03-27T02:31:32.522Z,99373.63
2023-03-27T02:34:24.207Z,99373.63
2023-03-27T02:37:39.755Z,99362.97
2023-03-27T02:40:57.045Z,99369.28
2023-03-27T02:44:06.260Z,99377.28
2023-03-27T02:47:11.631Z,99382.59
2023-03-27T02:49:52.901Z,99366.94
2023-03-27T02:52:31.047Z,99364.28
2023-03-27T02:55:06.922Z,99363.63
2023-03-27T02:57:51.720Z,99388.25
2023-03-27T03:00:33.960Z,99391.78
2023-03-27T03:03:28.799Z,99394.59
2023-03-27T03:06:07.535Z,99395.41
2023-03-27T03:08:39.267Z,99407.91
2023-03-27T03:11:13.623Z,99406.22
2023-03-27T03:13:42.620Z,99407.41
2023-03-27T03:16:11.849Z,99395.91
2023-03-27T03:18:41.856Z,99402.91
2023-03-27T03:21:10.667Z,99390.59
2023-03-27T03:23:39.546Z,99411.06
2023-03-27T03:26:08.564Z,99416.56
2023-03-27T03:29:00.405Z,99429.00
2023-03-27T03:31:45.782Z,99418.53
2023-03-27T03:34:16.973Z,99419.38
2023-03-27T03:36:49.930Z,99416.72
2023-03-27T03:39:24.311Z,99412.38
2023-03-27T03:41:52.888Z,99418.53
2023-03-27T03:44:21.879Z,99418.72
2023-03-27T03:46:50.862Z,99431.84
2023-03-27T03:49:23.389Z,99440.00
2023-03-27T03:52:04.515Z,99440.81
2023-03-27T03:54:34.763Z,99451.63
2023-03-27T03:57:03.517Z,99456.13
2023-03-27T03:59:34.396Z,99457.16
2023-03-27T04:02:29.020Z,99462.47
2023-03-27T04:05:13.623Z,99457.47
2023-03-27T04:07:42.593Z,99459.13
2023-03-27T04:10:29.649Z,99460.13
2023-03-27T04:12:59.822Z,99466.44
2023-03-27T04:15:34.948Z,99469.28
2023-03-27T04:18:04.620Z,99474.59
2023-03-27T04:20:34.950Z,99459.44
2023-03-27T04:23:06.136Z,99456.13
2023-03-27T04:25:40.480Z,99448.13
2023-03-27T04:28:16.876Z,99445.47
2023-03-27T04:30:50.651Z,99458.63
2023-03-27T04:33:39.578Z,99457.78
2023-03-27T04:36:31.920Z,99470.41
2023-03-27T04:39:23.492Z,99471.28
2023-03-27T04:41:54.164Z,99465.94
2023-03-27T04:44:22.894Z,99472.25
2023-03-27T04:46:51.953Z,99480.38
2023-03-27T04:49:20.596Z,99475.06
2023-03-27T04:52:14.310Z,99478.59
2023-03-27T04:54:44.147Z,99482.22
2023-03-27T04:57:13.155Z,99487.69
2023-03-27T04:59:41.783Z,99486.88
2023-03-27T05:02:52.841Z,99488.72
2023-03-27T05:05:50.626Z,99482.72
2023-03-27T05:08:19.526Z,99484.38
2023-03-27T05:10:48.131Z,99476.38
2023-03-27T05:13:17.056Z,99487.03
2023-03-27T05:15:46.060Z,99493.38
2023-03-27T05:18:17.510Z,99496.84
2023-03-27T05:20:51.402Z,99504.00
2023-03-27T05:23:20.265Z,99509.34
2023-03-27T05:25:59.250Z,99506.69
2023-03-27T05:28:37.053Z,99516.47
2023-03-27T05:31:05.849Z,99532.44
2023-03-27T05:33:45.202Z,99533.44
2023-03-27T05:36:15.624Z,99536.41
2023-03-27T05:38:45.025Z,99524.94
2023-03-27T05:41:16.332Z,99521.47
2023-03-27T05:43:51.315Z,99522.13
2023-03-27T05:46:21.727Z,99525.47
2023-03-27T05:48:59.810Z,99528.44
2023-03-27T05:51:29.497Z,99539.25
2023-03-27T05:53:58.566Z,99545.56
2023-03-27T05:56:41.031Z,99535.94
2023-03-27T05:59:09.756Z,99538.41
2023-03-27T06:01:40.219Z,99554.56
2023-03-27T06:04:09.611Z,99555.53
2023-03-27T06:06:56.367Z,99560.19
2023-03-27T06:09:26.116Z,99560.34
2023-03-27T06:12:16.495Z,99561.34
2023-03-27T06:14:45.717Z,99558.00
2023-03-27T06:17:27.786Z,99566.81
2023-03-27T06:20:11.549Z,99568.66
2023-03-27T06:22:46.827Z,99571.31
2023-03-27T06:25:18.807Z,99575.78
2023-03-27T06:27:49.927Z,99570.44
2023-03-27T06:30:21.804Z,99574.13
2023-03-27T06:33:10.435Z,99568.94
2023-03-27T06:35:39.819Z,99579.44
2023-03-27T06:38:18.280Z,99569.78
2023-03-27T06:40:47.499Z,99574.44
2023-03-27T06:43:22.557Z,99575.97
2023-03-27T06:46:01.762Z,99577.63
2023-03-27T06:49:01.880Z,99586.13
2023-03-27T06:51:31.675Z,99590.28
2023-03-27T06:54:00.366Z,99588.78
2023-03-27T06:56:31.087Z,99595.06
2023-03-27T06:59:32.049Z,99594.25
2023-03-27T07:02:04.354Z,99600.41
2023-03-27T07:04:35.664Z,99599.72
2023-03-27T07:07:24.751Z,99596.91
2023-03-27T07:09:53.144Z,99600.25
2023-03-27T07:12:27.239Z,99606.25
2023-03-27T07:14:56.521Z,99611.41
2023-03-27T07:17:41.803Z,99606.91
2023-03-27T07:20:16.580Z,99611.28
2023-03-27T07:22:45.460Z,99616.09
2023-03-27T07:25:37.451Z,99616.25
2023-03-27T07:28:14.138Z,99622.59
2023-03-27T07:30:42.607Z,99619.09
2023-03-27T07:33:13.186Z,99616.59
2023-03-27T07:35:46.627Z,99610.94
2023-03-27T07:38:36.089Z,99607.28
2023-03-27T07:41:14.715Z,99606.13
2023-03-27T07:43:49.363Z,99605.81
2023-03-27T07:46:24.403Z,99610.81
2023-03-27T07:48:56.812Z,99615.00
2023-03-27T07:51:27.708Z,99606.03
2023-03-27T07:53:58.957Z,99615.50
2023-03-27T07:56:34.326Z,99616.03
2023-03-27T07:59:33.482Z,99611.88
2023-03-27T08:02:11.551Z,99622.88
2023-03-27T08:04:42.584Z,99624.69
2023-03-27T08:07:12.134Z,99631.53
2023-03-27T08:09:43.946Z,99625.34
2023-03-27T08:12:12.553Z,99630.22
2023-03-27T08:14:47.266Z,99626.56
2023-03-27T08:17:29.143Z,99625.06
2023-03-27T08:19:58.363Z,99631.72
2023-03-27T08:22:28.607Z,99627.06
2023-03-27T08:25:17.803Z,99621.75
2023-03-27T08:27:46.890Z,99634.09
2023-03-27T08:30:19.329Z,99627.75
2023-03-27T08:32:47.849Z,99627.91
2023-03-27T08:35:17.021Z,99627.75
2023-03-27T08:37:45.552Z,99636.56
2023-03-27T08:40:34.668Z,99639.22
2023-03-27T08:43:43.178Z,99640.75
2023-03-27T08:46:36.914Z,99642.25
2023-03-27T08:49:19.963Z,99656.25
2023-03-27T08:52:19.701Z,99651.94
2023-03-27T08:55:01.774Z,99654.59
2023-03-27T08:57:41.037Z,99661.28
2023-03-27T09:00:25.454Z,99662.25
2023-03-27T09:03:29.045Z,99663.59
2023-03-27T09:06:08.570Z,99661.59
2023-03-27T09:09:07.362Z,99665.94
2023-03-27T09:11:49.286Z,99669.78
2023-03-27T09:14:33.134Z,99668.63
2023-03-27T09:17:10.034Z,99666.09
2023-03-27T09:19:49.729Z,99668.91
2023-03-27T09:22:31.604Z,99668.91
2023-03-27T09:25:38.087Z,99673.59
2023-03-27T09:28:32.653Z,99677.59
2023-03-27T09:31:34.940Z,99689.44
2023-03-27T09:34:12.341Z,99688.75
2023-03-27T09:36:42.188Z,99697.91
2023-03-27T09:39:17.805Z,99706.88
2023-03-27T09:42:09.429Z,99695.09
2023-03-27T09:44:41.729Z,99697.09
2023-03-27T09:47:21.498Z,99703.91
2023-03-27T09:50:21.498Z,99695.91
2023-03-27T09:53:23.148Z,99702.22
2023-03-27T09:56:13.117Z,99703.91
2023-03-27T09:58:49.360Z,99699.06
2023-03-27T10:01:34.825Z,99699.06
2023-03-27T10:04:23.351Z,99719.72
2023-03-27T10:07:07.076Z,99713.53
2023-03-27T10:10:04.210Z,99717.03
2023-03-27T10:12:36.672Z,99707.38
2023-03-27T10:15:08.072Z,99713.53
2023-03-27T10:17:38.794Z,99701.25
2023-03-27T10:20:20.236Z,99700.25
2023-03-27T10:23:07.181Z,99705.91
2023-03-27T10:25:42.111Z,99711.75
2023-03-27T10:28:27.324Z,99712.75
2023-03-27T10:31:32.375Z,99714.25
2023-03-27T10:34:32.874Z,99719.25
2023-03-27T10:37:34.741Z,99713.94
2023-03-27T10:40:25.830Z,99720.25
2023-03-27T10:43:02.144Z,99724.06
2023-03-27T10:45:31.011Z,99716.94
2023-03-27T10:48:01.640Z,99729.88
2023-03-27T10:50:38.574Z,99726.38
2023-03-27T10:53:49.369Z,99728.88
2023-03-27T10:56:25.273Z,99732.69
2023-03-27T10:59:25.469Z,99729.50
2023-03-27T11:02:39.149Z,99718.19
2023-03-27T11:05:11.360Z,99720.53
2023-03-27T11:07:48.185Z,99718.69
2023-03-27T11:10:44.377Z,99722.19
2023-03-27T11:13:44.061Z,99724.69
2023-03-27T11:16:39.647Z,99724.91
2023-03-27T11:19:52.626Z,99726.88
2023-03-27T11:22:44.935Z,99728.38
2023-03-27T11:25:40.223Z,99729.72
2023-03-27T11:28:31.605Z,99717.53
2023-03-27T11:31:38.595Z,99709.91
2023-03-27T11:34:34.462Z,99710.59
2023-03-27T11:37:24.196Z,99713.41
2023-03-27T11:40:09.573Z,99720.25
2023-03-27T11:42:42.842Z,99737.75
2023-03-27T11:45:18.556Z,99731.28
2023-03-27T11:48:02.387Z,99743.25
2023-03-27T11:51:07.152Z,99743.63
2023-03-27T11:53:38.708Z,99742.81
2023-03-27T11:56:29.376Z,99750.28
2023-03-27T11:59:48.772Z,99743.25
2023-03-27T12:02:49.661Z,99737.25
2023-03-27T12:05:52.677Z,99756.06
2023-03-27T12:08:52.696Z,99749.59
2023-03-27T12:11:21.533Z,99741.28
2023-03-27T12:14:40.088Z,99742.44
2023-03-27T12:17:41.734Z,99742.25
2023-03-27T12:20:53.828Z,99748.59
2023-03-27T12:23:47.057Z,99756.25
2023-03-27T12:26:48.389Z,99755.41
2023-03-27T12:30:23.047Z,99754.72
2023-03-27T12:33:14.314Z,99764.69
2023-03-27T12:35:47.387Z,99764.88
2023-03-27T12:38:42.789Z,99764.88
2023-03-27T12:41:44.196Z,99760.53
2023-03-27T12:44:32.074Z,99769.69
2023-03-27T12:47:14.570Z,99773.19
2023-03-27T12:49:48.076Z,99766.84
2023-03-27T12:52:28.722Z,99769.16
2023-03-27T12:55:18.621Z,99773.47
2023-03-27T12:58:00.138Z,99767.84
2023-03-27T13:01:01.064Z,99764.69
2023-03-27T13:04:59.156Z,99759.75
2023-03-27T13:07:46.936Z,99748.94
2023-03-27T13:10:38.770Z,99752.13
2023-03-27T13:13:49.969Z,99745.13
2023-03-27T13:16:27.164Z,99750.34
2023-03-27T13:19:37.897Z,99760.50
2023-03-27T13:22:58.096Z,99758.84
2023-03-27T13:25:40.014Z,99763.38
2023-03-27T13:28:34.594Z,99756.63
2023-03-27T13:31:34.612Z,99766.13
2023-03-27T13:34:27.503Z,99765.94
2023-03-27T13:37:36.921Z,99763.38
2023-03-27T13:40:24.562Z,99772.63
2023-03-27T13:42:59.813Z,99770.59
2023-03-27T13:45:52.393Z,99774.41
2023-03-27T13:49:06.192Z,99774.09
2023-03-27T13:52:32.592Z,99771.75
2023-03-27T13:55:17.975Z,99772.91
2023-03-27T13:58:20.349Z,99785.75
2023-03-27T14:01:36.240Z,99796.03
2023-03-27T14:04:51.392Z,99797.19
2023-03-27T14:07:54.079Z,99793.22
2023-03-27T14:10:49.868Z,99791.38
2023-03-27T14:13:54.794Z,99798.03
2023-03-27T14:16:51.628Z,99799.69
2023-03-27T14:19:41.996Z,99807.53
2023-03-27T14:22:30.428Z,99804.56
2023-03-27T14:25:04.966Z,99797.19
2023-03-27T14:28:02.819Z,99813.19
2023-03-27T14:30:46.150Z,99806.19
2023-03-27T14:33:34.760Z,99806.50
2023-03-27T14:36:05.788Z,99805.50
2023-03-27T14:38:38.689Z,99808.19
2023-03-27T14:41:22.485Z,99813.50
2023-03-27T14:43:57.108Z,99813.19
2023-03-27T14:46:26.988Z,99813.50
2023-03-27T14:48:58.878Z,99819.66
2023-03-27T14:51:48.265Z,99824.16
2023-03-27T14:54:44.560Z,99835.66
2023-03-27T14:57:22.451Z,99835.13
2023-03-27T14:59:55.797Z,99844.16
2023-03-27T15:02:35.025Z,99852.88
2023-03-27T15:05:14.014Z,99852.06
2023-03-27T15:07:49.198Z,99856.63
2023-03-27T15:10:37.439Z,99858.31
2023-03-27T15:13:11.072Z,99871.78
2023-03-27T15:15:47.205Z,99870.84
2023-03-27T15:18:28.721Z,99873.69
2023-03-27T15:21:02.448Z,99891.78
2023-03-27T15:23:50.222Z,99880.47
2023-03-27T15:26:26.228Z,99900.13
2023-03-27T15:29:02.049Z,99904.16
2023-03-27T15:31:31.150Z,99904.44
2023-03-27T15:34:34.394Z,99908.78
2023-03-27T15:37:06.080Z,99916.09
2023-03-27T15:39:35.012Z,99922.31
2023-03-27T15:42:19.799Z,99933.50
2023-03-27T15:44:48.694Z,99930.56
2023-03-27T15:47:28.916Z,99931.25
2023-03-27T15:50:19.924Z,99931.75
2023-03-27T15:52:51.044Z,99935.28
2023-03-27T15:55:45.045Z,99931.94
2023-03-27T15:58:52.790Z,99948.44
2023-03-27T16:01:32.446Z,99948.97
2023-03-27T16:04:05.986Z,99954.28
2023-03-27T16:06:37.837Z,99954.28
2023-03-27T16:09:28.648Z,99959.94
2023-03-27T16:11:58.294Z,99965.91
2023-03-27T16:14:48.428Z,99959.47
2023-03-27T16:17:25.375Z,99965.22
2023-03-27T16:19:56.397Z,99967.88
2023-03-27T16:22:32.952Z,99970.06
2023-03-27T16:25:05.368Z,99976.56
2023-03-27T16:27:40.907Z,99980.47
2023-03-27T16:30:20.624Z,99989.88
2023-03-27T16:32:49.654Z,99992.22
2023-03-27T16:35:18.548Z,99999.94
2023-03-27T16:37:47.984Z,100006.22
2023-03-27T16:40:16.579Z,100007.59
2023-03-27T16:42:45.617Z,100019.22
2023-03-27T16:45:14.118Z,100023.84
2023-03-27T16:47:43.173Z,100030.47
2023-03-27T16:50:18.978Z,100039.41
2023-03-27T16:52:47.938Z,100048.19
2023-03-27T16:55:16.519Z,100058.34
2023-03-27T16:57:46.819Z,100051.75
2023-03-27T17:00:16.775Z,100060.81
2023-03-27T17:02:47.151Z,100072.72
2023-03-27T17:05:16.311Z,100070.13
2023-03-27T17:07:47.052Z,100087.53
2023-03-27T17:10:15.943Z,100088.81
2023-03-27T17:12:44.753Z,100093.88
2023-03-27T17:15:15.270Z,100096.97
2023-03-27T17:17:45.309Z,100109.75
2023-03-27T17:20:13.896Z,100111.03
2023-03-27T17:22:42.896Z,100118.47
2023-03-27T17:25:11.794Z,100128.84
2023-03-27T17:27:40.827Z,100140.13
2023-03-27T17:30:09.849Z,100141.19
2023-03-27T17:32:38.632Z,100155.91
2023-03-27T17:35:08.086Z,100154.66
2023-03-27T17:37:36.880Z,100153.97
2023-03-27T17:40:09.831Z,100159.91
2023-03-27T17:42:38.820Z,100171.66
2023-03-27T17:45:07.702Z,100176.84
2023-03-27T17:47:36.706Z,100178.97
2023-03-27T17:50:05.940Z,100195.50
2023-03-27T17:52:35.371Z,100192.97
2023-03-27T17:55:03.976Z,100193.28
2023-03-27T17:57:33.134Z,100205.22
2023-03-27T18:00:01.780Z,100209.28
2023-03-27T18:02:30.735Z,100220.22
2023-03-27T18:05:00.432Z,100233.66
2023-03-27T18:07:29.719Z,100235.34
2023-03-27T18:09:58.218Z,100241.81
2023-03-27T18:12:26.939Z,100259.06
2023-03-27T18:14:55.550Z,100267.03
2023-03-27T18:17:24.632Z,100276.03
2023-03-27T18:19:53.039Z,100275.19
2023-03-27T18:22:22.147Z,100287.81
2023-03-27T18:24:50.625Z,100293.16
2023-03-27T18:27:19.749Z,100295.94
2023-03-27T18:29:48.212Z,100309.13
2023-03-27T18:32:17.057Z,100307.44
2023-03-27T18:34:45.459Z,100316.56
2023-03-27T18:37:14.467Z,100320.19
2023-03-27T18:39:42.956Z,100330.84
2023-03-27T18:42:11.838Z,100339.66
2023-03-27T18:44:42.077Z,100345.16
2023-03-27T18:47:11.172Z,100341.63
2023-03-27T18:49:39.485Z,100344.47
2023-03-27T18:52:10.157Z,100356.78
2023-03-27T18:54:38.856Z,100357.06
2023-03-27T18:57:07.989Z,100363.22
2023-03-27T18:59:37.155Z,100368.56
2023-03-27T19:02:06.311Z,100373.03
2023-03-27T19:04:35.028Z,100381.16
2023-03-27T19:07:04.146Z,100392.66
2023-03-27T19:09:40.817Z,100405.13
2023-03-27T19:12:11.247Z,100407.81
2023-03-27T19:15:02.200Z,100407.81
2023-03-27T19:18:09.454Z,100414.97
2023-03-27T19:21:01.076Z,100433.59
2023-03-27T19:23:59.236Z,100438.94
2023-03-27T19:26:35.135Z,100442.56
2023-03-27T19:29:04.367Z,100447.06
2023-03-27T19:31:32.947Z,100458.53
2023-03-27T19:34:04.944Z,100465.00
2023-03-27T19:36:33.727Z,100470.31
2023-03-27T19:39:04.576Z,100467.66
2023-03-27T19:41:33.049Z,100485.44
2023-03-27T19:44:01.868Z,100479.13
2023-03-27T19:46:30.618Z,100484.59
2023-03-27T19:48:59.520Z,100493.41
2023-03-27T19:51:42.027Z,100501.41
2023-03-27T19:54:14.222Z,100509.56
2023-03-27T19:56:42.780Z,100510.53
2023-03-27T19:59:17.994Z,100512.22
2023-03-27T20:01:53.121Z,100525.53
2023-03-27T20:04:22.088Z,100529.16
2023-03-27T20:06:50.654Z,100545.13
2023-03-27T20:09:19.577Z,100546.13
2023-03-27T20:11:48.042Z,100551.47
2023-03-27T20:14:16.925Z,100554.13
2023-03-27T20:16:47.019Z,100557.75
2023-03-27T20:19:17.076Z,100557.75
2023-03-27T20:21:45.510Z,100563.34
2023-03-27T20:24:18.506Z,100583.56
2023-03-27T20:26:57.619Z,100572.06
2023-03-27T20:29:28.538Z,100581.00
2023-03-27T20:31:56.993Z,100571.50
2023-03-27T20:34:25.863Z,100568.66
2023-03-27T20:36:55.054Z,100573.28
2023-03-27T20:39:47.361Z,100577.66
2023-03-27T20:42:17.709Z,100572.56
2023-03-27T20:44:47.368Z,100592.09
2023-03-27T20:47:19.362Z,100579.59
2023-03-27T20:49:49.458Z,100609.72
2023-03-27T20:52:19.530Z,100617.72
2023-03-27T20:54:48.216Z,100621.22
2023-03-27T20:57:19.404Z,100640.00
2023-03-27T20:59:48.481Z,100653.31
2023-03-27T21:02:18.532Z,100656.13
2023-03-27T21:04:47.975Z,100656.13
2023-03-27T21:07:17.022Z,100671.25
2023-03-27T21:09:48.640Z,100678.53
2023-03-27T21:12:17.118Z,100692.56
2023-03-27T21:14:45.812Z,100703.34
2023-03-27T21:17:14.237Z,100724.50
2023-03-27T21:19:43.094Z,100720.44
2023-03-27T21:22:11.775Z,100730.22
2023-03-27T21:24:42.593Z,100729.38
2023-03-27T21:27:10.998Z,100734.56
2023-03-27T21:29:39.876Z,100747.75
2023-03-27T21:32:08.422Z,100771.84
2023-03-27T21:34:37.443Z,100776.47
2023-03-27T21:37:05.885Z,100782.16
2023-03-27T21:39:34.823Z,100783.03
2023-03-27T21:42:03.310Z,100782.31
2023-03-27T21:44:32.194Z,100784.25
2023-03-27T21:47:00.645Z,100793.91
2023-03-27T21:49:29.512Z,100803.59
2023-03-27T21:51:57.881Z,100815.09
2023-03-27T21:54:26.696Z,100810.59
2023-03-27T21:56:55.087Z,100815.94
2023-03-27T21:59:23.984Z,100820.53
2023-03-27T22:01:54.467Z,100815.94
2023-03-27T22:04:23.378Z,100825.75
2023-03-27T22:06:52.246Z,100826.69
2023-03-27T22:09:21.389Z,100832.88
2023-03-27T22:11:49.837Z,100842.66
2023-03-27T22:14:18.583Z,100843.78
2023-03-27T22:16:47.025Z,100834.09
2023-03-27T22:19:15.765Z,100843.78
2023-03-27T22:21:44.234Z,100845.72
2023-03-27T22:24:12.932Z,100852.72
2023-03-27T22:26:41.346Z,100854.56
2023-03-27T22:29:10.086Z,100854.56
2023-03-27T22:31:38.627Z,100852.00
2023-03-27T22:34:07.772Z,100860.00
2023-03-27T22:36:36.235Z,100878.50
2023-03-27T22:39:05.758Z,100872.34
2023-03-27T22:41:34.181Z,100883.00
2023-03-27T22:44:02.924Z,100889.44
2023-03-27T22:46:31.305Z,100886.88
2023-03-27T22:49:00.044Z,100902.03
2023-03-27T22:51:29.482Z,100896.94
2023-03-27T22:53:58.368Z,100903.09
2023-03-27T22:56:26.714Z,100919.34
2023-03-27T22:58:55.727Z,100928.16
2023-03-27T23:01:24.129Z,100930.69
2023-03-27T23:03:52.944Z,100937.81
2023-03-27T23:06:23.378Z,100941.47
2023-03-27T23:08:52.248Z,100948.63
2023-03-27T23:11:20.801Z,100964.59
2023-03-27T23:13:49.860Z,100973.41
2023-03-27T23:16:18.269Z,100976.19
2023-03-27T23:18:47.074Z,100977.25
2023-03-27T23:21:18.095Z,100985.13
2023-03-27T23:23:47.200Z,100994.06
2023-03-27T23:26:15.913Z,101010.88
2023-03-27T23:28:44.803Z,101008.34
2023-03-27T23:31:18.168Z,101016.34
2023-03-27T23:33:48.917Z,101011.97
2023-03-27T23:36:22.981Z,101013.91
2023-03-27T23:38:52.049Z,101027.22
2023-03-27T23:41:20.812Z,101023.72
2023-03-27T23:43:49.870Z,101026.25
2023-03-27T23:46:18.467Z,101040.53
2023-03-27T23:48:47.565Z,101056.50
2023-03-27T23:51:16.552Z,101055.78
2023-03-27T23:53:45.285Z,101053.13
2023-03-27T23:56:13.838Z,101063.16
2023-03-27T23:58:42.759Z,101071.13
